Gunilla — SERW — position and weather

sailwx.info

Track history (hours):
 
Tides and Currents Weather Stations Pressure Air Temp Water Temp Dewpoint Dewpoint Depression Visibility Wind Speed Wind Dir Waves Ship Positions

Gunilla (Sweden)

Ship's website: http://www.gunilla.nu/engelsk/frameset_english.htm

Last reported at 2019-Aug-22 06:58 UTC. Time now 2019-Aug-22 10:02 UTC.
Position N 53°55' E 010°44'.

Length 49.4 m; beam 8.4 m; draft 2.7 m.

Type: . MMSI: 265318000.

Date/timePositionNaut miles runAvg speedWind from/ knotsBaromVisibWave heightAir tempDewpointWater temp
2019-Aug-22 06:58N 53°55' E 010°44'5 6.0
2019-Aug-22 06:11N 53°55' E 010°52'7 5.9
2019-Aug-22 05:02N 54°01' E 010°58'0 5.2
2019-Aug-22 05:00N 54°01' E 010°58'3 4.2
2019-Aug-22 04:24N 54°03' E 011°00'1 2.2
2019-Aug-22 03:54N 54°04' E 011°01'2 4.6
2019-Aug-22 03:30N 54°05' E 011°04'2 4.8
2019-Aug-22 03:00N 54°07' E 011°07'2 4.6
2019-Aug-22 02:31N 54°08' E 011°10'2 4.7
2019-Aug-22 02:00N 54°09' E 011°13'3 5.0
2019-Aug-22 01:30N 54°11' E 011°16'2 5.0
2019-Aug-22 01:00N 54°13' E 011°19'3 5.1
2019-Aug-22 00:30N 54°14' E 011°23'3 5.0
2019-Aug-22 00:00N 54°16' E 011°26'2 4.8
2019-Aug-21 23:30N 54°17' E 011°30'3 4.7
2019-Aug-21 22:58N 54°18' E 011°33'1 2.7
2019-Aug-21 22:29N 54°19' E 011°36'1 2.5
2019-Aug-21 21:59N 54°19' E 011°38'2 4.4
2019-Aug-21 21:30N 54°20' E 011°41'3 5.3
2019-Aug-21 20:59N 54°22' E 011°45'2 5.0
2019-Aug-21 20:30N 54°23' E 011°48'2 4.7
2019-Aug-21 20:00N 54°24' E 011°52'2 4.9
2019-Aug-21 19:30N 54°26' E 011°55'3 5.4
2019-Aug-21 18:56N 54°26' E 012°00'4 5.5
2019-Aug-21 18:12N 54°27' E 012°07'1 5.6
2019-Aug-21 18:00N 54°28' E 012°09'3 5.2
2019-Aug-21 17:30N 54°30' E 012°11'3 5.7
2019-Aug-21 17:00N 54°33' E 012°12'3 5.5
2019-Aug-21 16:30N 54°35' E 012°13'3 5.2
2019-Aug-21 16:01N 54°37' E 012°16'2 4.8
2019-Aug-21 15:30N 54°39' E 012°19'3 4.8
2019-Aug-21 14:46N 54°41' E 012°23'1 5.0
2019-Aug-21 14:30N 54°42' E 012°25'3 5.9
2019-Aug-21 13:56N 54°45' E 012°29'24 1.5
2019-Aug-20 22:09N 55°01' E 012°59'0 2.9
2019-Aug-20 21:59N 55°01' E 012°59'1 2.9
2019-Aug-20 21:30N 55°03' E 012°59'2 3.4
2019-Aug-20 20:59N 55°05' E 012°59'2 3.6
2019-Aug-20 20:30N 55°06' E 012°58'2 3.5
2019-Aug-20 20:00N 55°08' E 012°58'1 2.6
2019-Aug-20 19:30N 55°09' E 012°57'2 2.9
2019-Aug-20 18:58N 55°11' E 012°56'2 3.3
2019-Aug-20 18:29N 55°12' E 012°56'1 1.1
2019-Aug-20 17:56N 55°13' E 012°55'2 4.4
2019-Aug-20 17:22N 55°10' E 012°55'4 6.4
2019-Aug-20 16:47N 55°06' E 012°56'0 0.9
2019-Aug-20 16:14N 55°06' E 012°56'1 1.9
2019-Aug-20 15:42N 55°05' E 012°55'0 1.3
2019-Aug-20 15:25N 55°05' E 012°54'3 5.1
2019-Aug-20 14:48N 55°08' E 012°50'1 4.3
2019-Aug-20 14:30N 55°08' E 012°48'2 4.7
2019-Aug-20 14:00N 55°10' E 012°46'2 3.8
2019-Aug-20 13:30N 55°11' E 012°43'1 2.7
2019-Aug-20 13:00N 55°12' E 012°41'2 4.0
2019-Aug-20 12:30N 55°10' E 012°42'7 6.5
2019-Aug-20 11:30N 55°05' E 012°50'3 5.7
2019-Aug-20 10:54N 55°07' E 012°45'3 4.4
2019-Aug-20 10:14N 55°09' E 012°41'4 3.4
2019-Aug-20 08:53N 55°11' E 012°34'1 3.1
2019-Aug-20 08:29N 55°12' E 012°33'2 4.2
2019-Aug-20 08:00N 55°14' E 012°32'2 4.6
2019-Aug-20 07:30N 55°16' E 012°33'2 4.5
2019-Aug-20 07:00N 55°18' E 012°35'2 4.5
2019-Aug-20 06:30N 55°20' E 012°36'2 4.4
2019-Aug-20 06:00N 55°22' E 012°38'2 3.7
2019-Aug-20 05:30N 55°24' E 012°39'2 3.9
2019-Aug-20 05:00N 55°26' E 012°39'2 3.9
2019-Aug-20 04:31N 55°28' E 012°41'2 4.3
2019-Aug-20 04:00N 55°30' E 012°42'2 5.0
2019-Aug-20 03:30N 55°32' E 012°45'3 5.7
2019-Aug-20 03:00N 55°34' E 012°48'3 5.9
2019-Aug-20 02:30N 55°36' E 012°52'3 5.7
2019-Aug-20 02:00N 55°38' E 012°55'2 4.6
2019-Aug-20 01:30N 55°40' E 012°55'3 5.8
2019-Aug-20 01:00N 55°43' E 012°52'3 6.7
2019-Aug-20 00:30N 55°45' E 012°48'3 6.6
2019-Aug-20 00:00N 55°48' E 012°45'3 6.4
2019-Aug-19 23:30N 55°50' E 012°41'3 5.7
2019-Aug-19 23:01N 55°53' E 012°38'3 5.0
2019-Aug-19 22:30N 55°55' E 012°37'2 4.4
2019-Aug-19 22:00N 55°57' E 012°37'2 4.2
2019-Aug-19 21:31N 55°59' E 012°37'2 4.7
2019-Aug-19 21:00N 56°02' E 012°38'3 4.6
2019-Aug-19 20:26N 56°04' E 012°37'17 3.7
2019-Aug-19 15:59N 56°21' E 012°31'47 3.9
2019-Aug-19 03:57N 57°00' E 011°44'3 4.0
2019-Aug-19 03:16N 57°02' E 011°41'1 3.9
2019-Aug-19 03:00N 57°03' E 011°40'2 3.9
2019-Aug-19 02:23N 57°05' E 011°37'1 3.7
2019-Aug-19 02:00N 57°06' E 011°36'2 3.7
2019-Aug-19 01:21N 57°08' E 011°33'2 4.1
2019-Aug-19 00:58N 57°09' E 011°31'2 4.7
2019-Aug-19 00:30N 57°11' E 011°28'2 4.6
2019-Aug-19 00:00N 57°13' E 011°26'4 4.6
2019-Aug-18 23:10N 57°16' E 011°21'1 6.7
2019-Aug-18 23:00N 57°17' E 011°20'4 6.0
2019-Aug-18 22:23N 57°20' E 011°17'2 4.4
2019-Aug-18 22:00N 57°22' E 011°17'2 4.3
2019-Aug-18 21:30N 57°23' E 011°20'2 4.3
2019-Aug-18 21:01N 57°24' E 011°23'2 4.7
2019-Aug-18 20:30N 57°26' E 011°25'3 5.0
2019-Aug-18 20:00N 57°28' E 011°28'2 4.9
2019-Aug-18 19:30N 57°30' E 011°31'2 4.2
2019-Aug-18 19:01N 57°32' E 011°33'2 4.5
2019-Aug-18 18:30N 57°34' E 011°36'2 4.4
2019-Aug-18 18:01N 57°35' E 011°38'2 4.7
2019-Aug-18 17:30N 57°37' E 011°40'3 5.2
2019-Aug-18 17:00N 57°40' E 011°41'3 5.2
2019-Aug-18 16:31N 57°43' E 011°40'0 0.1
2019-Aug-18 15:58N 57°42' E 011°40'0 0.0
2019-Aug-18 15:28N 57°42' E 011°40'0 0.0
2019-Aug-18 14:58N 57°42' E 011°40'0 0.0
2019-Aug-18 14:28N 57°42' E 011°40'0 0.0
2019-Aug-18 13:58N 57°42' E 011°40'0 0.0
2019-Aug-18 13:28N 57°42' E 011°40'0 0.0
2019-Aug-18 12:58N 57°42' E 011°40'0 0.0
2019-Aug-18 12:28N 57°42' E 011°40'0 0.0
2019-Aug-18 11:58N 57°42' E 011°40'0 0.0
2019-Aug-18 11:28N 57°42' E 011°40'0 0.0
2019-Aug-18 10:58N 57°42' E 011°40'0 0.0
2019-Aug-18 10:28N 57°42' E 011°40'0 0.0
2019-Aug-18 09:58N 57°42' E 011°40'0 0.0
2019-Aug-18 09:28N 57°42' E 011°40'0 0.0
2019-Aug-18 08:58N 57°42' E 011°40'0 0.0
2019-Aug-18 08:28N 57°42' E 011°40'0 0.0
2019-Aug-18 07:58N 57°42' E 011°40'0 0.0
2019-Aug-18 06:58N 57°42' E 011°40'0 0.0
2019-Aug-18 06:28N 57°42' E 011°40'0 0.0
2019-Aug-18 05:58N 57°42' E 011°40'0 0.0
2019-Aug-18 05:28N 57°42' E 011°40'0 0.0
2019-Aug-18 04:58N 57°42' E 011°40'0 0.0
2019-Aug-18 04:28N 57°42' E 011°40'0 0.0
2019-Aug-18 03:58N 57°42' E 011°40'0 0.0
2019-Aug-18 03:28N 57°42' E 011°40'0 0.0
2019-Aug-18 02:58N 57°42' E 011°40'0 0.0
2019-Aug-18 02:28N 57°42' E 011°40'0 0.0
2019-Aug-18 01:58N 57°42' E 011°40'0 0.0
2019-Aug-18 01:28N 57°42' E 011°40'0 0.0
2019-Aug-18 00:58N 57°42' E 011°40'0 0.0
2019-Aug-18 00:28N 57°42' E 011°40'0 0.0
2019-Aug-17 23:58N 57°42' E 011°40'0 0.0
2019-Aug-17 23:28N 57°42' E 011°40'0 0.0
2019-Aug-17 22:58N 57°42' E 011°40'0 0.0
2019-Aug-17 22:28N 57°42' E 011°40'0 0.0
2019-Aug-17 21:58N 57°42' E 011°40'0 0.0
2019-Aug-17 21:28N 57°42' E 011°40'0 0.0
2019-Aug-17 20:58N 57°42' E 011°40'0 0.0
2019-Aug-17 20:28N 57°42' E 011°40'0 0.0
2019-Aug-17 19:58N 57°42' E 011°40'0 0.0
2019-Aug-17 19:28N 57°42' E 011°40'0 0.0
2019-Aug-17 18:58N 57°42' E 011°40'0 0.0
2019-Aug-17 18:28N 57°42' E 011°40'0 0.0
2019-Aug-17 17:28N 57°42' E 011°40'0 0.0
2019-Aug-17 16:58N 57°42' E 011°40'0 0.0
2019-Aug-17 16:28N 57°42' E 011°40'0 0.0
2019-Aug-17 15:58N 57°42' E 011°40'0 0.0
2019-Aug-17 15:28N 57°42' E 011°40'0 0.0
2019-Aug-17 14:58N 57°42' E 011°40'0 0.0
2019-Aug-17 14:28N 57°42' E 011°40'0 0.0
2019-Aug-17 13:58N 57°42' E 011°40'0 0.0
2019-Aug-17 13:28N 57°42' E 011°40'0 0.0
2019-Aug-17 12:58N 57°42' E 011°40'0 0.0
2019-Aug-17 12:28N 57°42' E 011°40'0 0.0
2019-Aug-17 11:58N 57°42' E 011°40'0 0.0
2019-Aug-17 11:28N 57°42' E 011°40'0 0.0
2019-Aug-17 10:58N 57°42' E 011°40'0 0.0
2019-Aug-17 10:28N 57°42' E 011°40'0 0.0
2019-Aug-17 09:58N 57°42' E 011°40'0 0.0
2019-Aug-17 09:28N 57°42' E 011°40'0 0.0
2019-Aug-17 08:58N 57°42' E 011°40'0 0.0
2019-Aug-17 08:28N 57°42' E 011°40'0 0.0
2019-Aug-17 07:58N 57°42' E 011°40'0 0.0
2019-Aug-17 07:28N 57°42' E 011°40'0 0.0
2019-Aug-17 06:58N 57°42' E 011°40'0 0.0
2019-Aug-17 06:28N 57°42' E 011°40'0 0.0
2019-Aug-17 05:58N 57°42' E 011°40'0 0.0
2019-Aug-17 05:28N 57°42' E 011°40'0 0.0
2019-Aug-17 04:58N 57°42' E 011°40'0 0.0
2019-Aug-17 04:28N 57°42' E 011°40'0 0.0
2019-Aug-17 03:58N 57°42' E 011°40'0 0.0
2019-Aug-17 03:28N 57°42' E 011°40'0 0.0
2019-Aug-17 02:58N 57°42' E 011°40'0 0.0
2019-Aug-17 02:28N 57°42' E 011°40'0 0.0
2019-Aug-17 01:58N 57°42' E 011°40'0 0.0
2019-Aug-17 01:28N 57°42' E 011°40'0 0.0
2019-Aug-17 00:58N 57°42' E 011°40'0 0.0
2019-Aug-17 00:28N 57°42' E 011°40'0 0.0
2019-Aug-16 23:58N 57°42' E 011°40'0 0.0
2019-Aug-16 23:28N 57°42' E 011°40'0 0.0
2019-Aug-16 22:58N 57°42' E 011°40'0 0.0
2019-Aug-16 22:28N 57°42' E 011°40'0 0.0
2019-Aug-16 21:58N 57°42' E 011°40'0 0.0
2019-Aug-16 21:28N 57°42' E 011°40'0 0.0
2019-Aug-16 20:58N 57°42' E 011°40'0 0.0
2019-Aug-16 20:28N 57°42' E 011°40'0 0.0
2019-Aug-16 19:58N 57°42' E 011°40'0 0.0
2019-Aug-16 19:28N 57°42' E 011°40'0 0.0
2019-Aug-16 18:58N 57°42' E 011°40'0 0.0
2019-Aug-16 18:28N 57°42' E 011°40'0 0.5
2019-Aug-16 17:59N 57°42' E 011°40'0 0.0
2019-Aug-16 17:29N 57°42' E 011°40'0 0.7
2019-Aug-16 17:01N 57°43' E 011°40'2 4.1
2019-Aug-16 16:31N 57°45' E 011°40'0 0.5
2019-Aug-16 16:01N 57°44' E 011°40'1 2.8
2019-Aug-16 15:31N 57°43' E 011°40'1 1.2
2019-Aug-16 14:58N 57°42' E 011°40'0 0.0
2019-Aug-16 14:28N 57°42' E 011°40'0 0.0
2019-Aug-16 13:58N 57°42' E 011°40'0 0.0
2019-Aug-16 13:28N 57°42' E 011°40'0 0.0
2019-Aug-16 12:58N 57°42' E 011°40'0 0.0
2019-Aug-16 12:28N 57°42' E 011°40'0 0.0
2019-Aug-16 11:58N 57°42' E 011°40'0 0.0
2019-Aug-16 11:28N 57°42' E 011°40'0 0.0
2019-Aug-16 10:58N 57°42' E 011°40'0 0.0
2019-Aug-16 10:28N 57°42' E 011°40'0 0.0
2019-Aug-16 09:58N 57°42' E 011°40'0 0.0
2019-Aug-16 09:28N 57°42' E 011°40'0 0.0
2019-Aug-16 08:58N 57°42' E 011°40'0 0.0
2019-Aug-16 08:28N 57°42' E 011°40'0 0.0
2019-Aug-16 07:58N 57°42' E 011°40'0 0.1
2019-Aug-16 07:28N 57°42' E 011°40'0 0.0
2019-Aug-16 06:58N 57°42' E 011°40'0 0.0
2019-Aug-16 06:28N 57°42' E 011°40'0 0.0
2019-Aug-16 05:58N 57°42' E 011°40'0 0.0
2019-Aug-16 05:28N 57°42' E 011°40'0 0.0
2019-Aug-16 04:58N 57°42' E 011°40'0 0.0
2019-Aug-16 04:28N 57°42' E 011°40'0 0.0
2019-Aug-16 03:58N 57°42' E 011°40'0 0.0
2019-Aug-16 03:28N 57°42' E 011°40'0 0.0
2019-Aug-16 02:58N 57°42' E 011°40'0 0.0
2019-Aug-16 02:28N 57°42' E 011°40'0 0.0
2019-Aug-16 01:58N 57°42' E 011°40'0 0.0
2019-Aug-16 01:28N 57°42' E 011°40'0 0.0
2019-Aug-16 00:58N 57°42' E 011°40'0 0.0
2019-Aug-16 00:28N 57°42' E 011°40'0 0.0
2019-Aug-15 23:58N 57°42' E 011°40'0 0.0
2019-Aug-15 23:28N 57°42' E 011°40'0 0.0
2019-Aug-15 22:58N 57°42' E 011°40'0 0.0
2019-Aug-15 22:28N 57°42' E 011°40'0 0.0
2019-Aug-15 21:58N 57°42' E 011°40'0 0.0
2019-Aug-15 21:31N 57°42' E 011°40'0 0.0
2019-Aug-15 21:01N 57°42' E 011°40'0 0.0
2019-Aug-15 20:28N 57°42' E 011°40'0 0.0
2019-Aug-15 19:58N 57°42' E 011°40'0 0.0
2019-Aug-15 19:28N 57°42' E 011°40'0 0.0
2019-Aug-15 18:58N 57°42' E 011°40'0 0.0
2019-Aug-15 18:28N 57°42' E 011°40'0 0.0
2019-Aug-15 18:01N 57°42' E 011°40'0 0.0
2019-Aug-15 17:28N 57°42' E 011°40'0 0.0
2019-Aug-15 16:58N 57°42' E 011°40'0 0.0
2019-Aug-15 16:31N 57°42' E 011°40'0 0.0
2019-Aug-15 15:58N 57°42' E 011°40'0 0.0
2019-Aug-15 15:28N 57°42' E 011°40'0 0.0
2019-Aug-15 14:58N 57°42' E 011°40'0 0.0
2019-Aug-15 14:28N 57°42' E 011°40'0 0.0
2019-Aug-15 13:58N 57°42' E 011°40'0 0.0
2019-Aug-15 13:28N 57°42' E 011°40'0 0.0
2019-Aug-15 12:58N 57°42' E 011°40'0 0.0
2019-Aug-15 12:28N 57°42' E 011°40'0 0.0
2019-Aug-15 11:58N 57°42' E 011°40'0 0.0
2019-Aug-15 11:28N 57°42' E 011°40'0 0.0
2019-Aug-15 11:00N 57°42' E 011°40'0 0.0
2019-Aug-15 10:28N 57°42' E 011°40'0 0.0
2019-Aug-15 09:57N 57°42' E 011°40'0 0.0
2019-Aug-15 09:28N 57°42' E 011°40'0 0.0
2019-Aug-15 09:00N 57°42' E 011°40'0 0.0
2019-Aug-15 08:31N 57°42' E 011°40'0 0.0
2019-Aug-15 07:58N 57°42' E 011°40'0 0.0
2019-Aug-15 07:28N 57°42' E 011°40'0 0.0
2019-Aug-15 07:00N 57°42' E 011°40'0 0.0
2019-Aug-15 06:31N 57°42' E 011°40'0 0.0
2019-Aug-15 06:01N 57°42' E 011°40'0 0.0
2019-Aug-15 05:27N 57°42' E 011°40'0 0.0
2019-Aug-15 04:58N 57°42' E 011°40'0 0.0
2019-Aug-15 04:31N 57°42' E 011°40'0 0.0
2019-Aug-15 03:58N 57°42' E 011°40'0 0.0
2019-Aug-15 03:31N 57°42' E 011°40'0 0.0
2019-Aug-15 03:00N 57°42' E 011°40'0 0.0
2019-Aug-15 02:30N 57°42' E 011°40'0 0.0
2019-Aug-15 02:01N 57°42' E 011°40'0 0.0
2019-Aug-15 01:27N 57°42' E 011°40'0 0.0
2019-Aug-15 00:57N 57°42' E 011°40'0 0.0
2019-Aug-15 00:31N 57°42' E 011°40'0 0.0
2019-Aug-14 23:57N 57°42' E 011°40'0 0.0
2019-Aug-14 23:30N 57°42' E 011°40'0 0.0
2019-Aug-14 23:01N 57°42' E 011°40'0 0.0
2019-Aug-14 22:27N 57°42' E 011°40'0 0.0
2019-Aug-14 21:57N 57°42' E 011°40'0 0.0
2019-Aug-14 21:30N 57°42' E 011°40'0 0.0
2019-Aug-14 21:01N 57°42' E 011°40'0 0.0
2019-Aug-14 20:28N 57°42' E 011°40'0 0.0
2019-Aug-14 19:57N 57°42' E 011°40'0 0.0
2019-Aug-14 19:30N 57°42' E 011°40'0 0.0
2019-Aug-14 19:00N 57°42' E 011°40'0 0.0
2019-Aug-14 18:30N 57°42' E 011°40'0 0.0
2019-Aug-14 18:00N 57°42' E 011°40'0 0.0
2019-Aug-14 17:30N 57°42' E 011°40'0 0.0
2019-Aug-14 17:00N 57°42' E 011°40'0 0.0
2019-Aug-14 16:30N 57°42' E 011°40'0 0.0
2019-Aug-14 16:00N 57°42' E 011°40'0 0.0
2019-Aug-14 15:31N 57°42' E 011°40'0 0.0
2019-Aug-14 15:00N 57°42' E 011°40'0 0.0
2019-Aug-14 14:30N 57°42' E 011°40'0 0.0
2019-Aug-14 14:00N 57°42' E 011°40'0 0.0
2019-Aug-14 13:30N 57°42' E 011°40'0 0.0
2019-Aug-14 13:00N 57°42' E 011°40'0 0.0
2019-Aug-14 12:30N 57°42' E 011°40'0 0.0
2019-Aug-14 12:00N 57°42' E 011°40'0 0.0
2019-Aug-14 11:30N 57°42' E 011°40'0 0.0
2019-Aug-14 11:00N 57°42' E 011°40'0 0.0
2019-Aug-14 10:30N 57°42' E 011°40'0 0.0
2019-Aug-14 10:00N 57°42' E 011°40'0 0.0
2019-Aug-14 09:30N 57°42' E 011°40'0 0.0
2019-Aug-14 09:00N 57°42' E 011°40'0 0.0
2019-Aug-14 08:30N 57°42' E 011°40'0 0.0
2019-Aug-14 08:00N 57°42' E 011°40'0 0.0
2019-Aug-14 07:30N 57°42' E 011°40'0 0.0
2019-Aug-14 07:00N 57°42' E 011°40'0 0.0
2019-Aug-14 06:30N 57°42' E 011°40'0 0.0
2019-Aug-14 06:00N 57°42' E 011°40'0 0.0
2019-Aug-14 05:30N 57°42' E 011°40'0 0.0
2019-Aug-14 05:00N 57°42' E 011°40'0 0.0
2019-Aug-14 04:30N 57°42' E 011°40'0 0.0
2019-Aug-14 04:00N 57°42' E 011°40'0 0.0
2019-Aug-14 03:30N 57°42' E 011°40'0 0.0
2019-Aug-14 03:00N 57°42' E 011°40'0 0.0
2019-Aug-14 02:30N 57°42' E 011°40'0 0.0
2019-Aug-14 02:00N 57°42' E 011°40'0 0.0
2019-Aug-14 01:30N 57°42' E 011°40'0 0.0
2019-Aug-14 01:00N 57°42' E 011°40'0 0.0
2019-Aug-14 00:30N 57°42' E 011°40'0 0.0
2019-Aug-14 00:00N 57°42' E 011°40'0 0.0
2019-Aug-13 23:30N 57°42' E 011°40'0 0.0
2019-Aug-13 23:00N 57°42' E 011°40'0 0.0
2019-Aug-13 22:30N 57°42' E 011°40'0 0.0
2019-Aug-13 22:00N 57°42' E 011°40'0 0.0
2019-Aug-13 21:30N 57°42' E 011°40'0 0.0
2019-Aug-13 21:00N 57°42' E 011°40'0 0.0
2019-Aug-13 20:30N 57°42' E 011°40'0 0.0
2019-Aug-13 20:00N 57°42' E 011°40'0 0.0
2019-Aug-13 19:30N 57°42' E 011°40'0 0.0
2019-Aug-13 19:00N 57°42' E 011°40'0 0.0
2019-Aug-13 18:30N 57°42' E 011°40'0 0.0
2019-Aug-13 18:00N 57°42' E 011°40'0 0.0
2019-Aug-13 17:30N 57°42' E 011°40'0 0.0
2019-Aug-13 17:00N 57°42' E 011°40'0 0.0
2019-Aug-13 16:30N 57°42' E 011°40'0 0.0
2019-Aug-13 16:00N 57°42' E 011°40'0 0.0
2019-Aug-13 15:30N 57°42' E 011°40'0 0.0
2019-Aug-13 15:00N 57°42' E 011°40'0 0.0
2019-Aug-13 14:30N 57°42' E 011°40'0 0.0
2019-Aug-13 14:00N 57°42' E 011°40'0 0.0
2019-Aug-13 13:30N 57°42' E 011°40'0 0.0
2019-Aug-13 13:00N 57°42' E 011°40'0 0.0
2019-Aug-13 12:30N 57°42' E 011°40'0 0.0
2019-Aug-13 12:00N 57°42' E 011°40'0 0.0
2019-Aug-13 11:30N 57°42' E 011°40'0 0.0
2019-Aug-13 11:00N 57°42' E 011°40'0 0.0
2019-Aug-13 10:30N 57°42' E 011°40'0 0.0
2019-Aug-13 10:00N 57°42' E 011°40'0 0.0
2019-Aug-13 09:30N 57°42' E 011°40'0 0.0
2019-Aug-13 09:00N 57°42' E 011°40'0 0.0
2019-Aug-13 08:30N 57°42' E 011°40'0 0.0
2019-Aug-13 08:00N 57°42' E 011°40'0 0.0
2019-Aug-13 07:30N 57°42' E 011°40'0 0.0
2019-Aug-13 07:00N 57°42' E 011°40'0 0.0
2019-Aug-13 06:30N 57°42' E 011°40'0 0.0
2019-Aug-13 06:00N 57°42' E 011°40'0 0.0
2019-Aug-13 05:30N 57°42' E 011°40'0 0.0
2019-Aug-13 05:00N 57°42' E 011°40'0 0.0
2019-Aug-13 04:30N 57°42' E 011°40'0 0.0
2019-Aug-13 04:00N 57°42' E 011°40'0 0.0
2019-Aug-13 03:30N 57°42' E 011°40'0 0.0
2019-Aug-13 03:00N 57°42' E 011°40'0 0.0
2019-Aug-13 02:00N 57°42' E 011°40'0 0.0
2019-Aug-13 01:30N 57°42' E 011°40'0 0.0
2019-Aug-13 01:00N 57°42' E 011°40'0 0.0
2019-Aug-13 00:30N 57°42' E 011°40'0 0.0
2019-Aug-13 00:00N 57°42' E 011°40'0 0.0
2019-Aug-12 23:30N 57°42' E 011°40'0 0.0
2019-Aug-12 23:00N 57°42' E 011°40'0 0.0
2019-Aug-12 22:30N 57°42' E 011°40'0 0.0
2019-Aug-12 22:00N 57°42' E 011°40'0 0.0
2019-Aug-12 21:30N 57°42' E 011°40'0 0.0
2019-Aug-12 20:57N 57°42' E 011°40'0 0.0
2019-Aug-12 20:30N 57°42' E 011°40'0 0.0
2019-Aug-12 20:00N 57°42' E 011°40'0 0.0
2019-Aug-12 19:30N 57°42' E 011°40'0 0.0
2019-Aug-12 19:00N 57°42' E 011°40'0 0.0
2019-Aug-12 18:30N 57°42' E 011°40'0 0.0
2019-Aug-12 18:00N 57°42' E 011°40'0 0.0
2019-Aug-12 17:30N 57°42' E 011°40'0 0.0
2019-Aug-12 17:00N 57°42' E 011°40'0 0.0
2019-Aug-12 16:30N 57°42' E 011°40'0 0.0
2019-Aug-12 16:00N 57°42' E 011°40'0 0.0
2019-Aug-12 15:30N 57°42' E 011°40'0 0.0
2019-Aug-12 15:00N 57°42' E 011°40'0 0.0
2019-Aug-12 14:30N 57°42' E 011°40'0 0.0
2019-Aug-12 14:00N 57°42' E 011°40'0 0.0
2019-Aug-12 13:30N 57°42' E 011°40'0 0.0
2019-Aug-12 13:00N 57°42' E 011°40'0 0.0
2019-Aug-12 12:30N 57°42' E 011°40'0 0.0
2019-Aug-12 12:00N 57°42' E 011°40'0 0.0
2019-Aug-12 11:30N 57°42' E 011°40'0 0.0
2019-Aug-12 11:00N 57°42' E 011°40'0 0.0
2019-Aug-12 10:30N 57°42' E 011°40'0 0.0
2019-Aug-12 10:00N 57°42' E 011°40'  
Track history (hours):
 
Tides and Currents Weather Stations Pressure Air Temp Water Temp Dewpoint Dewpoint Depression Visibility Wind Speed Wind Dir Waves Ship Positions

Gunilla (Sweden)

Ship's website: http://www.gunilla.nu/engelsk/frameset_english.htm

Last reported at 2019-Aug-22 06:58 UTC. Time now 2019-Aug-22 10:02 UTC.
Position N 53°55' E 010°44'.

Length 49.4 m; beam 8.4 m; draft 2.7 m.

Type: . MMSI: 265318000.

Date/timePositionNaut miles runAvg speedWind from/ knotsBaromVisibWave heightAir tempDewpointWater temp
2019-Aug-22 06:58N 53°55' E 010°44'5 6.0
2019-Aug-22 06:11N 53°55' E 010°52'7 5.9
2019-Aug-22 05:02N 54°01' E 010°58'0 5.2
2019-Aug-22 05:00N 54°01' E 010°58'3 4.2
2019-Aug-22 04:24N 54°03' E 011°00'1 2.2
2019-Aug-22 03:54N 54°04' E 011°01'2 4.6
2019-Aug-22 03:30N 54°05' E 011°04'2 4.8
2019-Aug-22 03:00N 54°07' E 011°07'2 4.6
2019-Aug-22 02:31N 54°08' E 011°10'2 4.7
2019-Aug-22 02:00N 54°09' E 011°13'3 5.0
2019-Aug-22 01:30N 54°11' E 011°16'2 5.0
2019-Aug-22 01:00N 54°13' E 011°19'3 5.1
2019-Aug-22 00:30N 54°14' E 011°23'3 5.0
2019-Aug-22 00:00N 54°16' E 011°26'2 4.8
2019-Aug-21 23:30N 54°17' E 011°30'3 4.7
2019-Aug-21 22:58N 54°18' E 011°33'1 2.7
2019-Aug-21 22:29N 54°19' E 011°36'1 2.5
2019-Aug-21 21:59N 54°19' E 011°38'2 4.4
2019-Aug-21 21:30N 54°20' E 011°41'3 5.3
2019-Aug-21 20:59N 54°22' E 011°45'2 5.0
2019-Aug-21 20:30N 54°23' E 011°48'2 4.7
2019-Aug-21 20:00N 54°24' E 011°52'2 4.9
2019-Aug-21 19:30N 54°26' E 011°55'3 5.4
2019-Aug-21 18:56N 54°26' E 012°00'4 5.5
2019-Aug-21 18:12N 54°27' E 012°07'1 5.6
2019-Aug-21 18:00N 54°28' E 012°09'3 5.2
2019-Aug-21 17:30N 54°30' E 012°11'3 5.7
2019-Aug-21 17:00N 54°33' E 012°12'3 5.5
2019-Aug-21 16:30N 54°35' E 012°13'3 5.2
2019-Aug-21 16:01N 54°37' E 012°16'2 4.8
2019-Aug-21 15:30N 54°39' E 012°19'3 4.8
2019-Aug-21 14:46N 54°41' E 012°23'1 5.0
2019-Aug-21 14:30N 54°42' E 012°25'3 5.9
2019-Aug-21 13:56N 54°45' E 012°29'24 1.5
2019-Aug-20 22:09N 55°01' E 012°59'0 2.9
2019-Aug-20 21:59N 55°01' E 012°59'1 2.9
2019-Aug-20 21:30N 55°03' E 012°59'2 3.4
2019-Aug-20 20:59N 55°05' E 012°59'2 3.6
2019-Aug-20 20:30N 55°06' E 012°58'2 3.5
2019-Aug-20 20:00N 55°08' E 012°58'1 2.6
2019-Aug-20 19:30N 55°09' E 012°57'2 2.9
2019-Aug-20 18:58N 55°11' E 012°56'2 3.3
2019-Aug-20 18:29N 55°12' E 012°56'1 1.1
2019-Aug-20 17:56N 55°13' E 012°55'2 4.4
2019-Aug-20 17:22N 55°10' E 012°55'4 6.4
2019-Aug-20 16:47N 55°06' E 012°56'0 0.9
2019-Aug-20 16:14N 55°06' E 012°56'1 1.9
2019-Aug-20 15:42N 55°05' E 012°55'0 1.3
2019-Aug-20 15:25N 55°05' E 012°54'3 5.1
2019-Aug-20 14:48N 55°08' E 012°50'1 4.3
2019-Aug-20 14:30N 55°08' E 012°48'2 4.7
2019-Aug-20 14:00N 55°10' E 012°46'2 3.8
2019-Aug-20 13:30N 55°11' E 012°43'1 2.7
2019-Aug-20 13:00N 55°12' E 012°41'2 4.0
2019-Aug-20 12:30N 55°10' E 012°42'7 6.5
2019-Aug-20 11:30N 55°05' E 012°50'3 5.7
2019-Aug-20 10:54N 55°07' E 012°45'3 4.4
2019-Aug-20 10:14N 55°09' E 012°41'4 3.4
2019-Aug-20 08:53N 55°11' E 012°34'1 3.1
2019-Aug-20 08:29N 55°12' E 012°33'2 4.2
2019-Aug-20 08:00N 55°14' E 012°32'2 4.6
2019-Aug-20 07:30N 55°16' E 012°33'2 4.5
2019-Aug-20 07:00N 55°18' E 012°35'2 4.5
2019-Aug-20 06:30N 55°20' E 012°36'2 4.4
2019-Aug-20 06:00N 55°22' E 012°38'2 3.7
2019-Aug-20 05:30N 55°24' E 012°39'2 3.9
2019-Aug-20 05:00N 55°26' E 012°39'2 3.9
2019-Aug-20 04:31N 55°28' E 012°41'2 4.3
2019-Aug-20 04:00N 55°30' E 012°42'2 5.0
2019-Aug-20 03:30N 55°32' E 012°45'3 5.7
2019-Aug-20 03:00N 55°34' E 012°48'3 5.9
2019-Aug-20 02:30N 55°36' E 012°52'3 5.7
2019-Aug-20 02:00N 55°38' E 012°55'2 4.6
2019-Aug-20 01:30N 55°40' E 012°55'3 5.8
2019-Aug-20 01:00N 55°43' E 012°52'3 6.7
2019-Aug-20 00:30N 55°45' E 012°48'3 6.6
2019-Aug-20 00:00N 55°48' E 012°45'3 6.4
2019-Aug-19 23:30N 55°50' E 012°41'3 5.7
2019-Aug-19 23:01N 55°53' E 012°38'3 5.0
2019-Aug-19 22:30N 55°55' E 012°37'2 4.4
2019-Aug-19 22:00N 55°57' E 012°37'2 4.2
2019-Aug-19 21:31N 55°59' E 012°37'2 4.7
2019-Aug-19 21:00N 56°02' E 012°38'3 4.6
2019-Aug-19 20:26N 56°04' E 012°37'17 3.7
2019-Aug-19 15:59N 56°21' E 012°31'47 3.9
2019-Aug-19 03:57N 57°00' E 011°44'3 4.0
2019-Aug-19 03:16N 57°02' E 011°41'1 3.9
2019-Aug-19 03:00N 57°03' E 011°40'2 3.9
2019-Aug-19 02:23N 57°05' E 011°37'1 3.7
2019-Aug-19 02:00N 57°06' E 011°36'2 3.7
2019-Aug-19 01:21N 57°08' E 011°33'2 4.1
2019-Aug-19 00:58N 57°09' E 011°31'2 4.7
2019-Aug-19 00:30N 57°11' E 011°28'2 4.6
2019-Aug-19 00:00N 57°13' E 011°26'4 4.6
2019-Aug-18 23:10N 57°16' E 011°21'1 6.7
2019-Aug-18 23:00N 57°17' E 011°20'4 6.0
2019-Aug-18 22:23N 57°20' E 011°17'2 4.4
2019-Aug-18 22:00N 57°22' E 011°17'2 4.3
2019-Aug-18 21:30N 57°23' E 011°20'2 4.3
2019-Aug-18 21:01N 57°24' E 011°23'2 4.7
2019-Aug-18 20:30N 57°26' E 011°25'3 5.0
2019-Aug-18 20:00N 57°28' E 011°28'2 4.9
2019-Aug-18 19:30N 57°30' E 011°31'2 4.2
2019-Aug-18 19:01N 57°32' E 011°33'2 4.5
2019-Aug-18 18:30N 57°34' E 011°36'2 4.4
2019-Aug-18 18:01N 57°35' E 011°38'2 4.7
2019-Aug-18 17:30N 57°37' E 011°40'3 5.2
2019-Aug-18 17:00N 57°40' E 011°41'3 5.2
2019-Aug-18 16:31N 57°43' E 011°40'0 0.1
2019-Aug-18 15:58N 57°42' E 011°40'0 0.0
2019-Aug-18 15:28N 57°42' E 011°40'0 0.0
2019-Aug-18 14:58N 57°42' E 011°40'0 0.0
2019-Aug-18 14:28N 57°42' E 011°40'0 0.0
2019-Aug-18 13:58N 57°42' E 011°40'0 0.0
2019-Aug-18 13:28N 57°42' E 011°40'0 0.0
2019-Aug-18 12:58N 57°42' E 011°40'0 0.0
2019-Aug-18 12:28N 57°42' E 011°40'0 0.0
2019-Aug-18 11:58N 57°42' E 011°40'0 0.0
2019-Aug-18 11:28N 57°42' E 011°40'0 0.0
2019-Aug-18 10:58N 57°42' E 011°40'0 0.0
2019-Aug-18 10:28N 57°42' E 011°40'0 0.0
2019-Aug-18 09:58N 57°42' E 011°40'0 0.0
2019-Aug-18 09:28N 57°42' E 011°40'0 0.0
2019-Aug-18 08:58N 57°42' E 011°40'0 0.0
2019-Aug-18 08:28N 57°42' E 011°40'0 0.0
2019-Aug-18 07:58N 57°42' E 011°40'0 0.0
2019-Aug-18 06:58N 57°42' E 011°40'0 0.0
2019-Aug-18 06:28N 57°42' E 011°40'0 0.0
2019-Aug-18 05:58N 57°42' E 011°40'0 0.0
2019-Aug-18 05:28N 57°42' E 011°40'0 0.0
2019-Aug-18 04:58N 57°42' E 011°40'0 0.0
2019-Aug-18 04:28N 57°42' E 011°40'0 0.0
2019-Aug-18 03:58N 57°42' E 011°40'0 0.0
2019-Aug-18 03:28N 57°42' E 011°40'0 0.0
2019-Aug-18 02:58N 57°42' E 011°40'0 0.0
2019-Aug-18 02:28N 57°42' E 011°40'0 0.0
2019-Aug-18 01:58N 57°42' E 011°40'0 0.0
2019-Aug-18 01:28N 57°42' E 011°40'0 0.0
2019-Aug-18 00:58N 57°42' E 011°40'0 0.0
2019-Aug-18 00:28N 57°42' E 011°40'0 0.0
2019-Aug-17 23:58N 57°42' E 011°40'0 0.0
2019-Aug-17 23:28N 57°42' E 011°40'0 0.0
2019-Aug-17 22:58N 57°42' E 011°40'0 0.0
2019-Aug-17 22:28N 57°42' E 011°40'0 0.0
2019-Aug-17 21:58N 57°42' E 011°40'0 0.0
2019-Aug-17 21:28N 57°42' E 011°40'0 0.0
2019-Aug-17 20:58N 57°42' E 011°40'0 0.0
2019-Aug-17 20:28N 57°42' E 011°40'0 0.0
2019-Aug-17 19:58N 57°42' E 011°40'0 0.0
2019-Aug-17 19:28N 57°42' E 011°40'0 0.0
2019-Aug-17 18:58N 57°42' E 011°40'0 0.0
2019-Aug-17 18:28N 57°42' E 011°40'0 0.0
2019-Aug-17 17:28N 57°42' E 011°40'0 0.0
2019-Aug-17 16:58N 57°42' E 011°40'0 0.0
2019-Aug-17 16:28N 57°42' E 011°40'0 0.0
2019-Aug-17 15:58N 57°42' E 011°40'0 0.0
2019-Aug-17 15:28N 57°42' E 011°40'0 0.0
2019-Aug-17 14:58N 57°42' E 011°40'0 0.0
2019-Aug-17 14:28N 57°42' E 011°40'0 0.0
2019-Aug-17 13:58N 57°42' E 011°40'0 0.0
2019-Aug-17 13:28N 57°42' E 011°40'0 0.0
2019-Aug-17 12:58N 57°42' E 011°40'0 0.0
2019-Aug-17 12:28N 57°42' E 011°40'0 0.0
2019-Aug-17 11:58N 57°42' E 011°40'0 0.0
2019-Aug-17 11:28N 57°42' E 011°40'0 0.0
2019-Aug-17 10:58N 57°42' E 011°40'0 0.0
2019-Aug-17 10:28N 57°42' E 011°40'0 0.0
2019-Aug-17 09:58N 57°42' E 011°40'0 0.0
2019-Aug-17 09:28N 57°42' E 011°40'0 0.0
2019-Aug-17 08:58N 57°42' E 011°40'0 0.0
2019-Aug-17 08:28N 57°42' E 011°40'0 0.0
2019-Aug-17 07:58N 57°42' E 011°40'0 0.0
2019-Aug-17 07:28N 57°42' E 011°40'0 0.0
2019-Aug-17 06:58N 57°42' E 011°40'0 0.0
2019-Aug-17 06:28N 57°42' E 011°40'0 0.0
2019-Aug-17 05:58N 57°42' E 011°40'0 0.0
2019-Aug-17 05:28N 57°42' E 011°40'0 0.0
2019-Aug-17 04:58N 57°42' E 011°40'0 0.0
2019-Aug-17 04:28N 57°42' E 011°40'0 0.0
2019-Aug-17 03:58N 57°42' E 011°40'0 0.0
2019-Aug-17 03:28N 57°42' E 011°40'0 0.0
2019-Aug-17 02:58N 57°42' E 011°40'0 0.0
2019-Aug-17 02:28N 57°42' E 011°40'0 0.0
2019-Aug-17 01:58N 57°42' E 011°40'0 0.0
2019-Aug-17 01:28N 57°42' E 011°40'0 0.0
2019-Aug-17 00:58N 57°42' E 011°40'0 0.0
2019-Aug-17 00:28N 57°42' E 011°40'0 0.0
2019-Aug-16 23:58N 57°42' E 011°40'0 0.0
2019-Aug-16 23:28N 57°42' E 011°40'0 0.0
2019-Aug-16 22:58N 57°42' E 011°40'0 0.0
2019-Aug-16 22:28N 57°42' E 011°40'0 0.0
2019-Aug-16 21:58N 57°42' E 011°40'0 0.0
2019-Aug-16 21:28N 57°42' E 011°40'0 0.0
2019-Aug-16 20:58N 57°42' E 011°40'0 0.0
2019-Aug-16 20:28N 57°42' E 011°40'0 0.0
2019-Aug-16 19:58N 57°42' E 011°40'0 0.0
2019-Aug-16 19:28N 57°42' E 011°40'0 0.0
2019-Aug-16 18:58N 57°42' E 011°40'0 0.0
2019-Aug-16 18:28N 57°42' E 011°40'0 0.5
2019-Aug-16 17:59N 57°42' E 011°40'0 0.0
2019-Aug-16 17:29N 57°42' E 011°40'0 0.7
2019-Aug-16 17:01N 57°43' E 011°40'2 4.1
2019-Aug-16 16:31N 57°45' E 011°40'0 0.5
2019-Aug-16 16:01N 57°44' E 011°40'1 2.8
2019-Aug-16 15:31N 57°43' E 011°40'1 1.2
2019-Aug-16 14:58N 57°42' E 011°40'0 0.0
2019-Aug-16 14:28N 57°42' E 011°40'0 0.0
2019-Aug-16 13:58N 57°42' E 011°40'0 0.0
2019-Aug-16 13:28N 57°42' E 011°40'0 0.0
2019-Aug-16 12:58N 57°42' E 011°40'0 0.0
2019-Aug-16 12:28N 57°42' E 011°40'0 0.0
2019-Aug-16 11:58N 57°42' E 011°40'0 0.0
2019-Aug-16 11:28N 57°42' E 011°40'0 0.0
2019-Aug-16 10:58N 57°42' E 011°40'0 0.0
2019-Aug-16 10:28N 57°42' E 011°40'0 0.0
2019-Aug-16 09:58N 57°42' E 011°40'0 0.0
2019-Aug-16 09:28N 57°42' E 011°40'0 0.0
2019-Aug-16 08:58N 57°42' E 011°40'0 0.0
2019-Aug-16 08:28N 57°42' E 011°40'0 0.0
2019-Aug-16 07:58N 57°42' E 011°40'0 0.1
2019-Aug-16 07:28N 57°42' E 011°40'0 0.0
2019-Aug-16 06:58N 57°42' E 011°40'0 0.0
2019-Aug-16 06:28N 57°42' E 011°40'0 0.0
2019-Aug-16 05:58N 57°42' E 011°40'0 0.0
2019-Aug-16 05:28N 57°42' E 011°40'0 0.0
2019-Aug-16 04:58N 57°42' E 011°40'0 0.0
2019-Aug-16 04:28N 57°42' E 011°40'0 0.0
2019-Aug-16 03:58N 57°42' E 011°40'0 0.0
2019-Aug-16 03:28N 57°42' E 011°40'0 0.0
2019-Aug-16 02:58N 57°42' E 011°40'0 0.0
2019-Aug-16 02:28N 57°42' E 011°40'0 0.0
2019-Aug-16 01:58N 57°42' E 011°40'0 0.0
2019-Aug-16 01:28N 57°42' E 011°40'0 0.0
2019-Aug-16 00:58N 57°42' E 011°40'0 0.0
2019-Aug-16 00:28N 57°42' E 011°40'0 0.0
2019-Aug-15 23:58N 57°42' E 011°40'0 0.0
2019-Aug-15 23:28N 57°42' E 011°40'0 0.0
2019-Aug-15 22:58N 57°42' E 011°40'0 0.0
2019-Aug-15 22:28N 57°42' E 011°40'0 0.0
2019-Aug-15 21:58N 57°42' E 011°40'0 0.0
2019-Aug-15 21:31N 57°42' E 011°40'0 0.0
2019-Aug-15 21:01N 57°42' E 011°40'0 0.0
2019-Aug-15 20:28N 57°42' E 011°40'0 0.0
2019-Aug-15 19:58N 57°42' E 011°40'0 0.0
2019-Aug-15 19:28N 57°42' E 011°40'0 0.0
2019-Aug-15 18:58N 57°42' E 011°40'0 0.0
2019-Aug-15 18:28N 57°42' E 011°40'0 0.0
2019-Aug-15 18:01N 57°42' E 011°40'0 0.0
2019-Aug-15 17:28N 57°42' E 011°40'0 0.0
2019-Aug-15 16:58N 57°42' E 011°40'0 0.0
2019-Aug-15 16:31N 57°42' E 011°40'0 0.0
2019-Aug-15 15:58N 57°42' E 011°40'0 0.0
2019-Aug-15 15:28N 57°42' E 011°40'0 0.0
2019-Aug-15 14:58N 57°42' E 011°40'0 0.0
2019-Aug-15 14:28N 57°42' E 011°40'0 0.0
2019-Aug-15 13:58N 57°42' E 011°40'0 0.0
2019-Aug-15 13:28N 57°42' E 011°40'0 0.0
2019-Aug-15 12:58N 57°42' E 011°40'0 0.0
2019-Aug-15 12:28N 57°42' E 011°40'0 0.0
2019-Aug-15 11:58N 57°42' E 011°40'0 0.0
2019-Aug-15 11:28N 57°42' E 011°40'0 0.0
2019-Aug-15 11:00N 57°42' E 011°40'0 0.0
2019-Aug-15 10:28N 57°42' E 011°40'0 0.0
2019-Aug-15 09:57N 57°42' E 011°40'0 0.0
2019-Aug-15 09:28N 57°42' E 011°40'0 0.0
2019-Aug-15 09:00N 57°42' E 011°40'0 0.0
2019-Aug-15 08:31N 57°42' E 011°40'0 0.0
2019-Aug-15 07:58N 57°42' E 011°40'0 0.0
2019-Aug-15 07:28N 57°42' E 011°40'0 0.0
2019-Aug-15 07:00N 57°42' E 011°40'0 0.0
2019-Aug-15 06:31N 57°42' E 011°40'0 0.0
2019-Aug-15 06:01N 57°42' E 011°40'0 0.0
2019-Aug-15 05:27N 57°42' E 011°40'0 0.0
2019-Aug-15 04:58N 57°42' E 011°40'0 0.0
2019-Aug-15 04:31N 57°42' E 011°40'0 0.0
2019-Aug-15 03:58N 57°42' E 011°40'0 0.0
2019-Aug-15 03:31N 57°42' E 011°40'0 0.0
2019-Aug-15 03:00N 57°42' E 011°40'0 0.0
2019-Aug-15 02:30N 57°42' E 011°40'0 0.0
2019-Aug-15 02:01N 57°42' E 011°40'0 0.0
2019-Aug-15 01:27N 57°42' E 011°40'0 0.0
2019-Aug-15 00:57N 57°42' E 011°40'0 0.0
2019-Aug-15 00:31N 57°42' E 011°40'0 0.0
2019-Aug-14 23:57N 57°42' E 011°40'0 0.0
2019-Aug-14 23:30N 57°42' E 011°40'0 0.0
2019-Aug-14 23:01N 57°42' E 011°40'0 0.0
2019-Aug-14 22:27N 57°42' E 011°40'0 0.0
2019-Aug-14 21:57N 57°42' E 011°40'0 0.0
2019-Aug-14 21:30N 57°42' E 011°40'0 0.0
2019-Aug-14 21:01N 57°42' E 011°40'0 0.0
2019-Aug-14 20:28N 57°42' E 011°40'0 0.0
2019-Aug-14 19:57N 57°42' E 011°40'0 0.0
2019-Aug-14 19:30N 57°42' E 011°40'0 0.0
2019-Aug-14 19:00N 57°42' E 011°40'0 0.0
2019-Aug-14 18:30N 57°42' E 011°40'0 0.0
2019-Aug-14 18:00N 57°42' E 011°40'0 0.0
2019-Aug-14 17:30N 57°42' E 011°40'0 0.0
2019-Aug-14 17:00N 57°42' E 011°40'0 0.0
2019-Aug-14 16:30N 57°42' E 011°40'0 0.0
2019-Aug-14 16:00N 57°42' E 011°40'0 0.0
2019-Aug-14 15:31N 57°42' E 011°40'0 0.0
2019-Aug-14 15:00N 57°42' E 011°40'0 0.0
2019-Aug-14 14:30N 57°42' E 011°40'0 0.0
2019-Aug-14 14:00N 57°42' E 011°40'0 0.0
2019-Aug-14 13:30N 57°42' E 011°40'0 0.0
2019-Aug-14 13:00N 57°42' E 011°40'0 0.0
2019-Aug-14 12:30N 57°42' E 011°40'0 0.0
2019-Aug-14 12:00N 57°42' E 011°40'0 0.0
2019-Aug-14 11:30N 57°42' E 011°40'0 0.0
2019-Aug-14 11:00N 57°42' E 011°40'0 0.0
2019-Aug-14 10:30N 57°42' E 011°40'0 0.0
2019-Aug-14 10:00N 57°42' E 011°40'0 0.0
2019-Aug-14 09:30N 57°42' E 011°40'0 0.0
2019-Aug-14 09:00N 57°42' E 011°40'0 0.0
2019-Aug-14 08:30N 57°42' E 011°40'0 0.0
2019-Aug-14 08:00N 57°42' E 011°40'0 0.0
2019-Aug-14 07:30N 57°42' E 011°40'0 0.0
2019-Aug-14 07:00N 57°42' E 011°40'0 0.0
2019-Aug-14 06:30N 57°42' E 011°40'0 0.0
2019-Aug-14 06:00N 57°42' E 011°40'0 0.0
2019-Aug-14 05:30N 57°42' E 011°40'0 0.0
2019-Aug-14 05:00N 57°42' E 011°40'0 0.0
2019-Aug-14 04:30N 57°42' E 011°40'0 0.0
2019-Aug-14 04:00N 57°42' E 011°40'0 0.0
2019-Aug-14 03:30N 57°42' E 011°40'0 0.0
2019-Aug-14 03:00N 57°42' E 011°40'0 0.0
2019-Aug-14 02:30N 57°42' E 011°40'0 0.0
2019-Aug-14 02:00N 57°42' E 011°40'0 0.0
2019-Aug-14 01:30N 57°42' E 011°40'0 0.0
2019-Aug-14 01:00N 57°42' E 011°40'0 0.0
2019-Aug-14 00:30N 57°42' E 011°40'0 0.0
2019-Aug-14 00:00N 57°42' E 011°40'0 0.0
2019-Aug-13 23:30N 57°42' E 011°40'0 0.0
2019-Aug-13 23:00N 57°42' E 011°40'0 0.0
2019-Aug-13 22:30N 57°42' E 011°40'0 0.0
2019-Aug-13 22:00N 57°42' E 011°40'0 0.0
2019-Aug-13 21:30N 57°42' E 011°40'0 0.0
2019-Aug-13 21:00N 57°42' E 011°40'0 0.0
2019-Aug-13 20:30N 57°42' E 011°40'0 0.0
2019-Aug-13 20:00N 57°42' E 011°40'0 0.0
2019-Aug-13 19:30N 57°42' E 011°40'0 0.0
2019-Aug-13 19:00N 57°42' E 011°40'0 0.0
2019-Aug-13 18:30N 57°42' E 011°40'0 0.0
2019-Aug-13 18:00N 57°42' E 011°40'0 0.0
2019-Aug-13 17:30N 57°42' E 011°40'0 0.0
2019-Aug-13 17:00N 57°42' E 011°40'0 0.0
2019-Aug-13 16:30N 57°42' E 011°40'0 0.0
2019-Aug-13 16:00N 57°42' E 011°40'0 0.0
2019-Aug-13 15:30N 57°42' E 011°40'0 0.0
2019-Aug-13 15:00N 57°42' E 011°40'0 0.0
2019-Aug-13 14:30N 57°42' E 011°40'0 0.0
2019-Aug-13 14:00N 57°42' E 011°40'0 0.0
2019-Aug-13 13:30N 57°42' E 011°40'0 0.0
2019-Aug-13 13:00N 57°42' E 011°40'0 0.0
2019-Aug-13 12:30N 57°42' E 011°40'0 0.0
2019-Aug-13 12:00N 57°42' E 011°40'0 0.0
2019-Aug-13 11:30N 57°42' E 011°40'0 0.0
2019-Aug-13 11:00N 57°42' E 011°40'0 0.0
2019-Aug-13 10:30N 57°42' E 011°40'0 0.0
2019-Aug-13 10:00N 57°42' E 011°40'0 0.0
2019-Aug-13 09:30N 57°42' E 011°40'0 0.0
2019-Aug-13 09:00N 57°42' E 011°40'0 0.0
2019-Aug-13 08:30N 57°42' E 011°40'0 0.0
2019-Aug-13 08:00N 57°42' E 011°40'0 0.0
2019-Aug-13 07:30N 57°42' E 011°40'0 0.0
2019-Aug-13 07:00N 57°42' E 011°40'0 0.0
2019-Aug-13 06:30N 57°42' E 011°40'0 0.0
2019-Aug-13 06:00N 57°42' E 011°40'0 0.0
2019-Aug-13 05:30N 57°42' E 011°40'0 0.0
2019-Aug-13 05:00N 57°42' E 011°40'0 0.0
2019-Aug-13 04:30N 57°42' E 011°40'0 0.0
2019-Aug-13 04:00N 57°42' E 011°40'0 0.0
2019-Aug-13 03:30N 57°42' E 011°40'0 0.0
2019-Aug-13 03:00N 57°42' E 011°40'0 0.0
2019-Aug-13 02:00N 57°42' E 011°40'0 0.0
2019-Aug-13 01:30N 57°42' E 011°40'0 0.0
2019-Aug-13 01:00N 57°42' E 011°40'0 0.0
2019-Aug-13 00:30N 57°42' E 011°40'0 0.0
2019-Aug-13 00:00N 57°42' E 011°40'0 0.0
2019-Aug-12 23:30N 57°42' E 011°40'0 0.0
2019-Aug-12 23:00N 57°42' E 011°40'0 0.0
2019-Aug-12 22:30N 57°42' E 011°40'0 0.0
2019-Aug-12 22:00N 57°42' E 011°40'0 0.0
2019-Aug-12 21:30N 57°42' E 011°40'0 0.0
2019-Aug-12 20:57N 57°42' E 011°40'0 0.0
2019-Aug-12 20:30N 57°42' E 011°40'0 0.0
2019-Aug-12 20:00N 57°42' E 011°40'0 0.0
2019-Aug-12 19:30N 57°42' E 011°40'0 0.0
2019-Aug-12 19:00N 57°42' E 011°40'0 0.0
2019-Aug-12 18:30N 57°42' E 011°40'0 0.0
2019-Aug-12 18:00N 57°42' E 011°40'0 0.0
2019-Aug-12 17:30N 57°42' E 011°40'0 0.0
2019-Aug-12 17:00N 57°42' E 011°40'0 0.0
2019-Aug-12 16:30N 57°42' E 011°40'0 0.0
2019-Aug-12 16:00N 57°42' E 011°40'0 0.0
2019-Aug-12 15:30N 57°42' E 011°40'0 0.0
2019-Aug-12 15:00N 57°42' E 011°40'0 0.0
2019-Aug-12 14:30N 57°42' E 011°40'0 0.0
2019-Aug-12 14:00N 57°42' E 011°40'0 0.0
2019-Aug-12 13:30N 57°42' E 011°40'0 0.0
2019-Aug-12 13:00N 57°42' E 011°40'0 0.0
2019-Aug-12 12:30N 57°42' E 011°40'0 0.0
2019-Aug-12 12:00N 57°42' E 011°40'0 0.0
2019-Aug-12 11:30N 57°42' E 011°40'0 0.0
2019-Aug-12 11:00N 57°42' E 011°40'0 0.0
2019-Aug-12 10:30N 57°42' E 011°40'0 0.0
2019-Aug-12 10:00N 57°42' E 011°40'  

Dump ship's entire track history